sensor_id;sensor_type;location;lat;lon;timestamp;P1;durP1;ratioP1;P2;durP2;ratioP2
17171;SDS011;8701;50.150;8.756;2023-11-21T00:01:33;5.10;;;2.10;;
17171;SDS011;8701;50.150;8.756;2023-11-21T00:05:35;3.13;;;1.90;;
17171;SDS011;8701;50.150;8.756;2023-11-21T00:09:38;3.80;;;2.20;;
17171;SDS011;8701;50.150;8.756;2023-11-21T00:13:40;6.93;;;2.00;;
17171;SDS011;8701;50.150;8.756;2023-11-21T00:17:43;5.10;;;2.10;;
17171;SDS011;8701;50.150;8.756;2023-11-21T00:21:45;3.87;;;2.40;;
17171;SDS011;8701;50.150;8.756;2023-11-21T00:25:48;4.90;;;2.00;;
17171;SDS011;8701;50.150;8.756;2023-11-21T00:29:50;7.67;;;2.70;;
17171;SDS011;8701;50.150;8.756;2023-11-21T00:33:53;8.50;;;2.37;;
17171;SDS011;8701;50.150;8.756;2023-11-21T00:37:56;3.10;;;2.03;;
17171;SDS011;8701;50.150;8.756;2023-11-21T00:42:00;6.60;;;2.23;;
17171;SDS011;8701;50.150;8.756;2023-11-21T00:46:04;2.70;;;1.90;;
17171;SDS011;8701;50.150;8.756;2023-11-21T00:50:08;2.53;;;2.10;;
17171;SDS011;8701;50.150;8.756;2023-11-21T00:54:11;3.17;;;2.20;;
17171;SDS011;8701;50.150;8.756;2023-11-21T00:58:15;3.23;;;2.27;;
17171;SDS011;8701;50.150;8.756;2023-11-21T01:02:17;3.27;;;1.87;;
17171;SDS011;8701;50.150;8.756;2023-11-21T01:06:20;4.00;;;1.70;;
17171;SDS011;8701;50.150;8.756;2023-11-21T01:10:22;6.33;;;2.30;;
17171;SDS011;8701;50.150;8.756;2023-11-21T01:14:26;2.43;;;1.73;;
17171;SDS011;8701;50.150;8.756;2023-11-21T01:18:29;2.90;;;2.20;;
17171;SDS011;8701;50.150;8.756;2023-11-21T01:22:31;3.03;;;1.90;;
17171;SDS011;8701;50.150;8.756;2023-11-21T01:26:34;6.40;;;2.27;;
17171;SDS011;8701;50.150;8.756;2023-11-21T01:30:38;4.67;;;2.23;;
17171;SDS011;8701;50.150;8.756;2023-11-21T01:34:40;2.53;;;1.80;;
17171;SDS011;8701;50.150;8.756;2023-11-21T01:38:42;5.60;;;2.40;;
17171;SDS011;8701;50.150;8.756;2023-11-21T01:42:46;4.20;;;2.13;;
17171;SDS011;8701;50.150;8.756;2023-11-21T01:46:50;6.53;;;2.63;;
17171;SDS011;8701;50.150;8.756;2023-11-21T01:50:54;5.97;;;2.80;;
17171;SDS011;8701;50.150;8.756;2023-11-21T01:54:57;3.67;;;2.30;;
17171;SDS011;8701;50.150;8.756;2023-11-21T01:59:01;4.00;;;2.27;;
17171;SDS011;8701;50.150;8.756;2023-11-21T02:03:04;4.80;;;2.47;;
17171;SDS011;8701;50.150;8.756;2023-11-21T02:07:07;2.67;;;2.10;;
17171;SDS011;8701;50.150;8.756;2023-11-21T02:11:10;3.83;;;2.70;;
17171;SDS011;8701;50.150;8.756;2023-11-21T02:15:14;4.67;;;2.27;;
17171;SDS011;8701;50.150;8.756;2023-11-21T02:19:22;2.40;;;2.20;;
17171;SDS011;8701;50.150;8.756;2023-11-21T02:23:27;4.70;;;2.50;;
17171;SDS011;8701;50.150;8.756;2023-11-21T02:27:29;3.07;;;2.20;;
17171;SDS011;8701;50.150;8.756;2023-11-21T02:31:32;4.80;;;2.73;;
17171;SDS011;8701;50.150;8.756;2023-11-21T02:35:35;2.13;;;1.93;;
17171;SDS011;8701;50.150;8.756;2023-11-21T02:39:39;4.10;;;1.90;;
17171;SDS011;8701;50.150;8.756;2023-11-21T02:43:42;3.70;;;2.50;;
17171;SDS011;8701;50.150;8.756;2023-11-21T02:47:44;2.40;;;2.20;;
17171;SDS011;8701;50.150;8.756;2023-11-21T02:51:46;4.50;;;2.50;;
17171;SDS011;8701;50.150;8.756;2023-11-21T02:55:50;2.90;;;1.77;;
17171;SDS011;8701;50.150;8.756;2023-11-21T02:59:53;1.80;;;1.70;;
17171;SDS011;8701;50.150;8.756;2023-11-21T03:03:56;4.70;;;3.87;;
17171;SDS011;8701;50.150;8.756;2023-11-21T03:07:58;1.87;;;1.77;;
17171;SDS011;8701;50.150;8.756;2023-11-21T03:12:02;2.83;;;2.57;;
17171;SDS011;8701;50.150;8.756;2023-11-21T03:16:04;2.10;;;1.90;;
17171;SDS011;8701;50.150;8.756;2023-11-21T03:20:09;4.13;;;2.13;;
17171;SDS011;8701;50.150;8.756;2023-11-21T03:24:12;3.93;;;2.20;;
17171;SDS011;8701;50.150;8.756;2023-11-21T03:28:18;2.30;;;2.00;;
17171;SDS011;8701;50.150;8.756;2023-11-21T03:32:20;2.53;;;1.90;;
17171;SDS011;8701;50.150;8.756;2023-11-21T03:36:22;2.80;;;1.60;;
17171;SDS011;8701;50.150;8.756;2023-11-21T03:40:27;1.70;;;1.60;;
17171;SDS011;8701;50.150;8.756;2023-11-21T03:44:30;2.40;;;1.90;;
17171;SDS011;8701;50.150;8.756;2023-11-21T03:48:33;2.07;;;1.97;;
17171;SDS011;8701;50.150;8.756;2023-11-21T03:52:36;1.93;;;1.83;;
17171;SDS011;8701;50.150;8.756;2023-11-21T03:56:39;2.60;;;1.83;;
17171;SDS011;8701;50.150;8.756;2023-11-21T04:00:42;2.07;;;1.97;;
17171;SDS011;8701;50.150;8.756;2023-11-21T04:04:44;1.73;;;1.63;;
17171;SDS011;8701;50.150;8.756;2023-11-21T04:08:47;1.60;;;1.50;;
17171;SDS011;8701;50.150;8.756;2023-11-21T04:12:49;2.77;;;2.10;;
17171;SDS011;8701;50.150;8.756;2023-11-21T04:16:52;2.90;;;2.70;;
17171;SDS011;8701;50.150;8.756;2023-11-21T04:20:55;4.00;;;2.90;;
17171;SDS011;8701;50.150;8.756;2023-11-21T04:24:57;7.70;;;3.30;;
17171;SDS011;8701;50.150;8.756;2023-11-21T04:28:59;3.20;;;2.97;;
17171;SDS011;8701;50.150;8.756;2023-11-21T04:33:03;3.30;;;3.00;;
17171;SDS011;8701;50.150;8.756;2023-11-21T04:37:05;3.70;;;3.40;;
17171;SDS011;8701;50.150;8.756;2023-11-21T04:41:08;4.10;;;3.47;;
17171;SDS011;8701;50.150;8.756;2023-11-21T04:45:10;5.20;;;3.80;;
17171;SDS011;8701;50.150;8.756;2023-11-21T04:49:14;6.40;;;4.10;;
17171;SDS011;8701;50.150;8.756;2023-11-21T04:53:16;5.80;;;4.20;;
17171;SDS011;8701;50.150;8.756;2023-11-21T04:57:18;15.13;;;5.33;;
17171;SDS011;8701;50.150;8.756;2023-11-21T05:01:20;9.93;;;5.70;;
17171;SDS011;8701;50.150;8.756;2023-11-21T05:05:24;10.70;;;6.43;;
17171;SDS011;8701;50.150;8.756;2023-11-21T05:09:26;9.53;;;5.80;;
17171;SDS011;8701;50.150;8.756;2023-11-21T05:13:33;10.40;;;6.80;;
17171;SDS011;8701;50.150;8.756;2023-11-21T05:17:35;11.60;;;7.20;;
17171;SDS011;8701;50.150;8.756;2023-11-21T05:21:39;16.97;;;7.80;;
17171;SDS011;8701;50.150;8.756;2023-11-21T05:25:41;19.90;;;9.50;;
17171;SDS011;8701;50.150;8.756;2023-11-21T05:29:43;13.83;;;9.40;;
17171;SDS011;8701;50.150;8.756;2023-11-21T05:33:46;15.27;;;9.03;;
17171;SDS011;8701;50.150;8.756;2023-11-21T05:37:50;17.87;;;9.40;;
17171;SDS011;8701;50.150;8.756;2023-11-21T05:41:52;17.10;;;9.77;;
17171;SDS011;8701;50.150;8.756;2023-11-21T05:45:54;16.57;;;10.23;;
17171;SDS011;8701;50.150;8.756;2023-11-21T05:49:57;19.43;;;10.53;;
17171;SDS011;8701;50.150;8.756;2023-11-21T05:54:00;23.10;;;10.00;;
17171;SDS011;8701;50.150;8.756;2023-11-21T05:58:03;15.90;;;9.60;;
17171;SDS011;8701;50.150;8.756;2023-11-21T06:02:05;15.77;;;8.50;;
17171;SDS011;8701;50.150;8.756;2023-11-21T06:06:08;15.43;;;8.67;;
17171;SDS011;8701;50.150;8.756;2023-11-21T06:10:12;18.50;;;8.97;;
17171;SDS011;8701;50.150;8.756;2023-11-21T06:14:14;15.90;;;9.37;;
17171;SDS011;8701;50.150;8.756;2023-11-21T06:18:18;17.33;;;9.50;;
17171;SDS011;8701;50.150;8.756;2023-11-21T06:22:20;27.33;;;9.60;;
17171;SDS011;8701;50.150;8.756;2023-11-21T06:26:24;14.90;;;7.83;;
17171;SDS011;8701;50.150;8.756;2023-11-21T06:30:26;15.00;;;6.60;;
17171;SDS011;8701;50.150;8.756;2023-11-21T06:34:29;7.23;;;4.80;;
17171;SDS011;8701;50.150;8.756;2023-11-21T06:38:31;7.00;;;3.87;;
17171;SDS011;8701;50.150;8.756;2023-11-21T06:42:35;5.50;;;4.17;;
17171;SDS011;8701;50.150;8.756;2023-11-21T06:46:38;8.43;;;4.23;;
17171;SDS011;8701;50.150;8.756;2023-11-21T06:50:43;6.33;;;3.80;;
17171;SDS011;8701;50.150;8.756;2023-11-21T06:54:47;7.17;;;4.17;;
17171;SDS011;8701;50.150;8.756;2023-11-21T06:58:51;6.03;;;3.90;;
17171;SDS011;8701;50.150;8.756;2023-11-21T07:02:54;5.83;;;4.37;;
17171;SDS011;8701;50.150;8.756;2023-11-21T07:06:57;6.93;;;4.40;;
17171;SDS011;8701;50.150;8.756;2023-11-21T07:10:59;5.13;;;4.63;;
17171;SDS011;8701;50.150;8.756;2023-11-21T07:15:03;6.03;;;4.70;;
17171;SDS011;8701;50.150;8.756;2023-11-21T07:19:09;8.70;;;5.20;;
17171;SDS011;8701;50.150;8.756;2023-11-21T07:23:12;7.20;;;5.17;;
17171;SDS011;8701;50.150;8.756;2023-11-21T07:27:16;8.40;;;4.70;;
17171;SDS011;8701;50.150;8.756;2023-11-21T07:31:20;8.40;;;5.20;;
17171;SDS011;8701;50.150;8.756;2023-11-21T07:35:22;9.30;;;5.93;;
17171;SDS011;8701;50.150;8.756;2023-11-21T07:39:24;9.97;;;5.57;;
17171;SDS011;8701;50.150;8.756;2023-11-21T07:43:27;10.83;;;5.60;;
17171;SDS011;8701;50.150;8.756;2023-11-21T07:47:36;7.63;;;5.50;;
17171;SDS011;8701;50.150;8.756;2023-11-21T07:51:39;7.60;;;5.30;;
17171;SDS011;8701;50.150;8.756;2023-11-21T07:55:41;7.97;;;5.77;;
17171;SDS011;8701;50.150;8.756;2023-11-21T07:59:47;9.60;;;6.00;;
17171;SDS011;8701;50.150;8.756;2023-11-21T08:03:51;9.60;;;5.80;;
17171;SDS011;8701;50.150;8.756;2023-11-21T08:07:57;8.53;;;5.83;;
17171;SDS011;8701;50.150;8.756;2023-11-21T08:11:59;9.13;;;6.57;;
17171;SDS011;8701;50.150;8.756;2023-11-21T08:16:03;10.13;;;6.47;;
17171;SDS011;8701;50.150;8.756;2023-11-21T08:20:10;9.13;;;7.17;;
17171;SDS011;8701;50.150;8.756;2023-11-21T08:24:13;11.97;;;6.40;;
17171;SDS011;8701;50.150;8.756;2023-11-21T08:28:15;12.60;;;6.10;;
17171;SDS011;8701;50.150;8.756;2023-11-21T08:32:18;13.37;;;6.53;;
17171;SDS011;8701;50.150;8.756;2023-11-21T08:36:21;10.87;;;6.53;;
17171;SDS011;8701;50.150;8.756;2023-11-21T08:40:24;12.07;;;7.00;;
17171;SDS011;8701;50.150;8.756;2023-11-21T08:44:26;13.90;;;8.03;;
17171;SDS011;8701;50.150;8.756;2023-11-21T08:48:29;12.47;;;7.47;;
17171;SDS011;8701;50.150;8.756;2023-11-21T08:52:32;11.90;;;8.00;;
17171;SDS011;8701;50.150;8.756;2023-11-21T08:56:34;12.53;;;7.40;;
17171;SDS011;8701;50.150;8.756;2023-11-21T09:00:36;11.03;;;7.00;;
17171;SDS011;8701;50.150;8.756;2023-11-21T09:04:39;16.33;;;8.57;;
17171;SDS011;8701;50.150;8.756;2023-11-21T09:08:42;11.60;;;7.13;;
17171;SDS011;8701;50.150;8.756;2023-11-21T09:12:44;13.10;;;7.23;;
17171;SDS011;8701;50.150;8.756;2023-11-21T09:16:47;9.10;;;7.30;;
17171;SDS011;8701;50.150;8.756;2023-11-21T09:20:49;11.43;;;7.33;;
17171;SDS011;8701;50.150;8.756;2023-11-21T09:24:53;11.57;;;7.23;;
17171;SDS011;8701;50.150;8.756;2023-11-21T09:28:57;15.83;;;6.80;;
17171;SDS011;8701;50.150;8.756;2023-11-21T09:32:59;14.40;;;6.30;;
17171;SDS011;8701;50.150;8.756;2023-11-21T09:37:01;9.00;;;6.87;;
17171;SDS011;8701;50.150;8.756;2023-11-21T09:41:07;13.07;;;7.43;;
17171;SDS011;8701;50.150;8.756;2023-11-21T09:45:18;11.53;;;6.63;;
17171;SDS011;8701;50.150;8.756;2023-11-21T09:49:26;10.43;;;6.67;;
17171;SDS011;8701;50.150;8.756;2023-11-21T09:53:28;8.80;;;6.43;;
17171;SDS011;8701;50.150;8.756;2023-11-21T09:57:35;7.23;;;4.60;;
17171;SDS011;8701;50.150;8.756;2023-11-21T10:01:38;8.20;;;5.60;;
17171;SDS011;8701;50.150;8.756;2023-11-21T10:05:42;11.90;;;6.20;;
17171;SDS011;8701;50.150;8.756;2023-11-21T10:09:46;10.63;;;5.97;;
17171;SDS011;8701;50.150;8.756;2023-11-21T10:13:50;7.67;;;4.50;;
17171;SDS011;8701;50.150;8.756;2023-11-21T10:17:55;6.67;;;4.73;;
17171;SDS011;8701;50.150;8.756;2023-11-21T10:21:57;14.30;;;4.33;;
17171;SDS011;8701;50.150;8.756;2023-11-21T10:26:02;5.20;;;3.53;;
17171;SDS011;8701;50.150;8.756;2023-11-21T10:30:10;9.13;;;4.50;;
17171;SDS011;8701;50.150;8.756;2023-11-21T10:34:13;5.80;;;3.83;;
17171;SDS011;8701;50.150;8.756;2023-11-21T10:38:16;6.43;;;4.10;;
17171;SDS011;8701;50.150;8.756;2023-11-21T10:42:18;7.57;;;4.90;;
17171;SDS011;8701;50.150;8.756;2023-11-21T10:46:22;7.00;;;4.00;;
17171;SDS011;8701;50.150;8.756;2023-11-21T10:50:26;6.47;;;3.10;;
17171;SDS011;8701;50.150;8.756;2023-11-21T10:54:28;7.93;;;3.97;;
17171;SDS011;8701;50.150;8.756;2023-11-21T10:58:30;10.27;;;4.07;;
17171;SDS011;8701;50.150;8.756;2023-11-21T11:02:35;5.07;;;3.63;;
17171;SDS011;8701;50.150;8.756;2023-11-21T11:06:37;7.30;;;4.03;;
17171;SDS011;8701;50.150;8.756;2023-11-21T11:10:39;8.77;;;3.47;;
17171;SDS011;8701;50.150;8.756;2023-11-21T11:14:42;5.27;;;3.10;;
17171;SDS011;8701;50.150;8.756;2023-11-21T11:18:46;8.27;;;4.80;;
17171;SDS011;8701;50.150;8.756;2023-11-21T11:22:50;11.67;;;3.87;;
17171;SDS011;8701;50.150;8.756;2023-11-21T11:27:06;3.53;;;2.90;;
17171;SDS011;8701;50.150;8.756;2023-11-21T11:31:21;4.80;;;3.70;;
17171;SDS011;8701;50.150;8.756;2023-11-21T11:35:38;5.20;;;3.50;;
17171;SDS011;8701;50.150;8.756;2023-11-21T11:39:50;4.60;;;3.43;;
17171;SDS011;8701;50.150;8.756;2023-11-21T11:43:54;11.43;;;4.40;;
17171;SDS011;8701;50.150;8.756;2023-11-21T11:47:57;7.87;;;4.43;;
17171;SDS011;8701;50.150;8.756;2023-11-21T11:56:47;6.33;;;4.37;;
17171;SDS011;8701;50.150;8.756;2023-11-21T12:00:50;10.00;;;4.97;;
17171;SDS011;8701;50.150;8.756;2023-11-21T12:04:55;7.23;;;4.30;;
17171;SDS011;8701;50.150;8.756;2023-11-21T12:09:00;6.50;;;4.10;;
17171;SDS011;8701;50.150;8.756;2023-11-21T12:13:06;9.40;;;4.60;;
17171;SDS011;8701;50.150;8.756;2023-11-21T12:17:10;10.20;;;4.90;;
17171;SDS011;8701;50.150;8.756;2023-11-21T12:21:13;6.53;;;3.70;;
17171;SDS011;8701;50.150;8.756;2023-11-21T12:25:17;7.43;;;3.80;;
17171;SDS011;8701;50.150;8.756;2023-11-21T12:29:21;6.97;;;4.40;;
17171;SDS011;8701;50.150;8.756;2023-11-21T12:33:24;11.73;;;5.10;;
17171;SDS011;8701;50.150;8.756;2023-11-21T12:37:26;10.13;;;4.20;;
17171;SDS011;8701;50.150;8.756;2023-11-21T12:41:28;10.37;;;3.97;;
17171;SDS011;8701;50.150;8.756;2023-11-21T12:45:33;9.37;;;3.70;;
17171;SDS011;8701;50.150;8.756;2023-11-21T12:49:35;7.73;;;3.73;;
17171;SDS011;8701;50.150;8.756;2023-11-21T12:53:39;11.20;;;4.67;;
17171;SDS011;8701;50.150;8.756;2023-11-21T12:57:42;7.40;;;4.03;;
17171;SDS011;8701;50.150;8.756;2023-11-21T13:01:46;5.73;;;3.87;;
17171;SDS011;8701;50.150;8.756;2023-11-21T13:05:52;7.40;;;4.60;;
17171;SDS011;8701;50.150;8.756;2023-11-21T13:09:57;14.03;;;5.17;;
17171;SDS011;8701;50.150;8.756;2023-11-21T13:13:59;8.13;;;4.10;;
17171;SDS011;8701;50.150;8.756;2023-11-21T13:18:03;11.10;;;4.97;;
17171;SDS011;8701;50.150;8.756;2023-11-21T13:22:05;11.17;;;4.50;;
17171;SDS011;8701;50.150;8.756;2023-11-21T13:26:11;8.50;;;4.50;;
17171;SDS011;8701;50.150;8.756;2023-11-21T13:30:15;10.83;;;5.37;;
17171;SDS011;8701;50.150;8.756;2023-11-21T13:34:20;8.47;;;5.77;;
17171;SDS011;8701;50.150;8.756;2023-11-21T13:38:26;8.27;;;4.40;;
17171;SDS011;8701;50.150;8.756;2023-11-21T13:42:32;7.43;;;4.57;;
17171;SDS011;8701;50.150;8.756;2023-11-21T13:46:34;6.40;;;4.70;;
17171;SDS011;8701;50.150;8.756;2023-11-21T13:50:39;9.40;;;4.37;;
17171;SDS011;8701;50.150;8.756;2023-11-21T13:54:49;11.03;;;4.70;;
17171;SDS011;8701;50.150;8.756;2023-11-21T13:58:51;9.43;;;5.00;;
17171;SDS011;8701;50.150;8.756;2023-11-21T14:02:54;9.63;;;4.40;;
17171;SDS011;8701;50.150;8.756;2023-11-21T14:07:02;11.93;;;5.07;;
17171;SDS011;8701;50.150;8.756;2023-11-21T14:11:21;6.90;;;5.20;;
17171;SDS011;8701;50.150;8.756;2023-11-21T14:15:23;15.20;;;5.67;;
17171;SDS011;8701;50.150;8.756;2023-11-21T14:19:25;21.57;;;6.10;;
17171;SDS011;8701;50.150;8.756;2023-11-21T14:23:33;14.00;;;5.60;;
17171;SDS011;8701;50.150;8.756;2023-11-21T14:27:36;16.37;;;5.83;;
17171;SDS011;8701;50.150;8.756;2023-11-21T14:31:39;19.57;;;6.70;;
17171;SDS011;8701;50.150;8.756;2023-11-21T14:35:42;8.13;;;5.50;;
17171;SDS011;8701;50.150;8.756;2023-11-21T14:39:46;9.23;;;5.70;;
17171;SDS011;8701;50.150;8.756;2023-11-21T14:43:50;16.77;;;6.17;;
17171;SDS011;8701;50.150;8.756;2023-11-21T14:47:53;17.03;;;6.00;;
17171;SDS011;8701;50.150;8.756;2023-11-21T14:52:05;10.87;;;6.30;;
17171;SDS011;8701;50.150;8.756;2023-11-21T14:56:20;7.77;;;5.77;;
17171;SDS011;8701;50.150;8.756;2023-11-21T15:00:27;14.30;;;6.60;;
17171;SDS011;8701;50.150;8.756;2023-11-21T15:04:44;8.53;;;5.83;;
17171;SDS011;8701;50.150;8.756;2023-11-21T15:08:49;9.27;;;5.67;;
17171;SDS011;8701;50.150;8.756;2023-11-21T15:13:14;11.60;;;5.47;;
17171;SDS011;8701;50.150;8.756;2023-11-21T15:17:16;8.90;;;5.37;;
17171;SDS011;8701;50.150;8.756;2023-11-21T15:21:23;12.07;;;6.10;;
17171;SDS011;8701;50.150;8.756;2023-11-21T15:25:25;12.00;;;6.33;;
17171;SDS011;8701;50.150;8.756;2023-11-21T15:29:29;10.30;;;6.00;;
17171;SDS011;8701;50.150;8.756;2023-11-21T15:33:31;10.30;;;6.27;;
17171;SDS011;8701;50.150;8.756;2023-11-21T15:37:33;9.03;;;5.60;;
17171;SDS011;8701;50.150;8.756;2023-11-21T15:41:35;9.37;;;5.73;;
17171;SDS011;8701;50.150;8.756;2023-11-21T15:45:40;7.23;;;5.23;;
17171;SDS011;8701;50.150;8.756;2023-11-21T15:49:42;11.53;;;6.60;;
17171;SDS011;8701;50.150;8.756;2023-11-21T15:53:46;13.67;;;6.80;;
17171;SDS011;8701;50.150;8.756;2023-11-21T15:57:49;16.10;;;6.70;;
17171;SDS011;8701;50.150;8.756;2023-11-21T16:01:52;14.53;;;6.10;;
17171;SDS011;8701;50.150;8.756;2023-11-21T16:05:55;12.00;;;6.40;;
17171;SDS011;8701;50.150;8.756;2023-11-21T16:09:57;9.77;;;6.37;;
17171;SDS011;8701;50.150;8.756;2023-11-21T16:13:59;9.47;;;6.70;;
17171;SDS011;8701;50.150;8.756;2023-11-21T16:18:03;11.67;;;6.23;;
17171;SDS011;8701;50.150;8.756;2023-11-21T16:22:05;11.60;;;6.60;;
17171;SDS011;8701;50.150;8.756;2023-11-21T16:26:07;13.20;;;6.47;;
17171;SDS011;8701;50.150;8.756;2023-11-21T16:30:12;11.70;;;6.77;;
17171;SDS011;8701;50.150;8.756;2023-11-21T16:34:17;7.63;;;5.43;;
17171;SDS011;8701;50.150;8.756;2023-11-21T16:38:20;6.70;;;5.23;;
17171;SDS011;8701;50.150;8.756;2023-11-21T16:42:22;8.60;;;6.00;;
17171;SDS011;8701;50.150;8.756;2023-11-21T16:46:24;13.17;;;6.10;;
17171;SDS011;8701;50.150;8.756;2023-11-21T16:50:28;13.10;;;6.57;;
17171;SDS011;8701;50.150;8.756;2023-11-21T16:54:30;11.10;;;6.60;;
17171;SDS011;8701;50.150;8.756;2023-11-21T16:58:32;10.43;;;7.30;;
17171;SDS011;8701;50.150;8.756;2023-11-21T17:02:34;10.63;;;6.77;;
17171;SDS011;8701;50.150;8.756;2023-11-21T17:06:40;12.63;;;6.93;;
17171;SDS011;8701;50.150;8.756;2023-11-21T17:10:43;13.73;;;6.10;;
17171;SDS011;8701;50.150;8.756;2023-11-21T17:14:49;10.17;;;5.87;;
17171;SDS011;8701;50.150;8.756;2023-11-21T17:18:51;11.40;;;5.03;;
17171;SDS011;8701;50.150;8.756;2023-11-21T17:22:55;9.30;;;5.67;;
17171;SDS011;8701;50.150;8.756;2023-11-21T17:26:58;8.70;;;5.57;;
17171;SDS011;8701;50.150;8.756;2023-11-21T17:31:00;9.70;;;5.37;;
17171;SDS011;8701;50.150;8.756;2023-11-21T17:35:03;14.03;;;5.40;;
17171;SDS011;8701;50.150;8.756;2023-11-21T17:39:10;11.67;;;6.57;;
17171;SDS011;8701;50.150;8.756;2023-11-21T17:43:12;7.60;;;5.47;;
17171;SDS011;8701;50.150;8.756;2023-11-21T17:47:14;6.97;;;5.20;;
17171;SDS011;8701;50.150;8.756;2023-11-21T17:51:16;10.77;;;6.10;;
17171;SDS011;8701;50.150;8.756;2023-11-21T17:55:20;9.50;;;5.90;;
17171;SDS011;8701;50.150;8.756;2023-11-21T17:59:22;8.20;;;6.00;;
17171;SDS011;8701;50.150;8.756;2023-11-21T18:03:24;8.10;;;5.27;;
17171;SDS011;8701;50.150;8.756;2023-11-21T18:07:26;9.07;;;5.60;;
17171;SDS011;8701;50.150;8.756;2023-11-21T18:11:30;10.20;;;5.50;;
17171;SDS011;8701;50.150;8.756;2023-11-21T18:15:32;6.73;;;5.27;;
17171;SDS011;8701;50.150;8.756;2023-11-21T18:19:34;7.40;;;3.87;;
17171;SDS011;8701;50.150;8.756;2023-11-21T18:23:36;3.60;;;2.90;;
17171;SDS011;8701;50.150;8.756;2023-11-21T18:27:40;4.97;;;3.33;;
17171;SDS011;8701;50.150;8.756;2023-11-21T18:31:42;3.10;;;2.80;;
17171;SDS011;8701;50.150;8.756;2023-11-21T18:35:45;3.80;;;3.20;;
17171;SDS011;8701;50.150;8.756;2023-11-21T18:39:47;3.50;;;3.13;;
17171;SDS011;8701;50.150;8.756;2023-11-21T18:43:51;3.03;;;2.80;;
17171;SDS011;8701;50.150;8.756;2023-11-21T18:47:54;2.93;;;2.73;;
17171;SDS011;8701;50.150;8.756;2023-11-21T18:51:56;2.80;;;2.60;;
17171;SDS011;8701;50.150;8.756;2023-11-21T18:55:59;3.47;;;3.10;;
17171;SDS011;8701;50.150;8.756;2023-11-21T19:00:03;6.93;;;3.47;;
17171;SDS011;8701;50.150;8.756;2023-11-21T19:04:09;6.83;;;5.23;;
17171;SDS011;8701;50.150;8.756;2023-11-21T19:08:13;5.23;;;4.30;;
17171;SDS011;8701;50.150;8.756;2023-11-21T19:12:15;5.67;;;4.13;;
17171;SDS011;8701;50.150;8.756;2023-11-21T19:16:19;4.77;;;4.17;;
17171;SDS011;8701;50.150;8.756;2023-11-21T19:20:21;5.50;;;4.30;;
17171;SDS011;8701;50.150;8.756;2023-11-21T19:24:24;6.20;;;4.70;;
17171;SDS011;8701;50.150;8.756;2023-11-21T19:28:26;5.17;;;4.40;;
17171;SDS011;8701;50.150;8.756;2023-11-21T19:32:30;4.60;;;3.73;;
17171;SDS011;8701;50.150;8.756;2023-11-21T19:36:33;5.07;;;4.10;;
17171;SDS011;8701;50.150;8.756;2023-11-21T19:40:41;3.87;;;3.57;;
17171;SDS011;8701;50.150;8.756;2023-11-21T19:44:44;5.57;;;4.13;;
17171;SDS011;8701;50.150;8.756;2023-11-21T19:48:48;8.70;;;4.30;;
17171;SDS011;8701;50.150;8.756;2023-11-21T19:52:53;5.87;;;4.27;;
17171;SDS011;8701;50.150;8.756;2023-11-21T19:56:55;3.90;;;3.53;;
17171;SDS011;8701;50.150;8.756;2023-11-21T20:00:57;6.00;;;4.70;;
17171;SDS011;8701;50.150;8.756;2023-11-21T20:05:01;6.10;;;4.03;;
17171;SDS011;8701;50.150;8.756;2023-11-21T20:09:03;5.90;;;4.37;;
17171;SDS011;8701;50.150;8.756;2023-11-21T20:13:07;5.93;;;5.00;;
17171;SDS011;8701;50.150;8.756;2023-11-21T20:17:10;4.13;;;3.60;;
17171;SDS011;8701;50.150;8.756;2023-11-21T20:21:19;5.70;;;4.50;;
17171;SDS011;8701;50.150;8.756;2023-11-21T20:25:22;5.00;;;4.27;;
17171;SDS011;8701;50.150;8.756;2023-11-21T20:29:24;6.50;;;4.33;;
17171;SDS011;8701;50.150;8.756;2023-11-21T20:33:27;8.53;;;4.90;;
17171;SDS011;8701;50.150;8.756;2023-11-21T20:37:30;5.83;;;4.50;;
17171;SDS011;8701;50.150;8.756;2023-11-21T20:41:34;6.77;;;4.07;;
17171;SDS011;8701;50.150;8.756;2023-11-21T20:45:36;9.23;;;4.83;;
17171;SDS011;8701;50.150;8.756;2023-11-21T20:49:39;6.90;;;4.60;;
17171;SDS011;8701;50.150;8.756;2023-11-21T20:53:44;5.70;;;4.53;;
17171;SDS011;8701;50.150;8.756;2023-11-21T20:57:47;5.87;;;4.40;;
17171;SDS011;8701;50.150;8.756;2023-11-21T21:01:49;4.80;;;3.97;;
17171;SDS011;8701;50.150;8.756;2023-11-21T21:05:52;6.43;;;4.53;;
17171;SDS011;8701;50.150;8.756;2023-11-21T21:09:55;6.10;;;4.20;;
17171;SDS011;8701;50.150;8.756;2023-11-21T21:13:58;6.03;;;4.57;;
17171;SDS011;8701;50.150;8.756;2023-11-21T21:18:01;4.90;;;4.23;;
17171;SDS011;8701;50.150;8.756;2023-11-21T21:22:05;7.90;;;5.13;;
17171;SDS011;8701;50.150;8.756;2023-11-21T21:26:09;5.63;;;4.57;;
17171;SDS011;8701;50.150;8.756;2023-11-21T21:30:12;7.40;;;5.33;;
17171;SDS011;8701;50.150;8.756;2023-11-21T21:34:14;7.77;;;5.20;;
17171;SDS011;8701;50.150;8.756;2023-11-21T21:38:17;5.40;;;4.50;;
17171;SDS011;8701;50.150;8.756;2023-11-21T21:42:21;5.07;;;3.60;;
17171;SDS011;8701;50.150;8.756;2023-11-21T21:46:23;8.27;;;5.00;;
17171;SDS011;8701;50.150;8.756;2023-11-21T21:50:25;4.80;;;3.80;;
17171;SDS011;8701;50.150;8.756;2023-11-21T21:54:30;5.70;;;4.00;;
17171;SDS011;8701;50.150;8.756;2023-11-21T21:58:34;5.50;;;4.53;;
17171;SDS011;8701;50.150;8.756;2023-11-21T22:02:36;3.87;;;3.03;;
17171;SDS011;8701;50.150;8.756;2023-11-21T22:06:39;2.47;;;2.27;;
17171;SDS011;8701;50.150;8.756;2023-11-21T22:10:41;2.27;;;2.07;;
17171;SDS011;8701;50.150;8.756;2023-11-21T22:14:45;2.10;;;1.90;;
17171;SDS011;8701;50.150;8.756;2023-11-21T22:18:48;4.53;;;2.17;;
17171;SDS011;8701;50.150;8.756;2023-11-21T22:22:50;3.23;;;2.23;;
17171;SDS011;8701;50.150;8.756;2023-11-21T22:26:52;2.03;;;1.83;;
17171;SDS011;8701;50.150;8.756;2023-11-21T22:30:56;1.50;;;1.40;;
17171;SDS011;8701;50.150;8.756;2023-11-21T22:34:58;4.20;;;2.03;;
17171;SDS011;8701;50.150;8.756;2023-11-21T22:39:00;1.80;;;1.70;;
17171;SDS011;8701;50.150;8.756;2023-11-21T22:43:02;1.73;;;1.57;;
17171;SDS011;8701;50.150;8.756;2023-11-21T22:47:06;1.70;;;1.60;;
17171;SDS011;8701;50.150;8.756;2023-11-21T22:51:08;3.90;;;1.67;;
17171;SDS011;8701;50.150;8.756;2023-11-21T22:55:11;1.50;;;1.40;;
17171;SDS011;8701;50.150;8.756;2023-11-21T22:59:15;1.60;;;1.50;;
17171;SDS011;8701;50.150;8.756;2023-11-21T23:03:18;2.20;;;2.07;;
17171;SDS011;8701;50.150;8.756;2023-11-21T23:07:21;2.47;;;2.27;;
17171;SDS011;8701;50.150;8.756;2023-11-21T23:11:23;3.70;;;2.33;;
17171;SDS011;8701;50.150;8.756;2023-11-21T23:15:25;2.20;;;2.00;;
17171;SDS011;8701;50.150;8.756;2023-11-21T23:19:29;1.87;;;1.77;;
17171;SDS011;8701;50.150;8.756;2023-11-21T23:23:31;2.60;;;2.20;;
17171;SDS011;8701;50.150;8.756;2023-11-21T23:27:33;2.40;;;2.07;;
17171;SDS011;8701;50.150;8.756;2023-11-21T23:31:35;2.23;;;2.03;;
17171;SDS011;8701;50.150;8.756;2023-11-21T23:35:39;2.63;;;2.40;;
17171;SDS011;8701;50.150;8.756;2023-11-21T23:39:41;2.50;;;2.30;;
17171;SDS011;8701;50.150;8.756;2023-11-21T23:43:44;3.43;;;2.53;;
17171;SDS011;8701;50.150;8.756;2023-11-21T23:47:46;2.23;;;2.00;;
17171;SDS011;8701;50.150;8.756;2023-11-21T23:51:49;3.20;;;2.50;;
17171;SDS011;8701;50.150;8.756;2023-11-21T23:55:52;2.40;;;2.20;;
17171;SDS011;8701;50.150;8.756;2023-11-21T23:59:54;2.97;;;2.37;;
